Time;durP1;ratioP1;P1;durP2;ratioP2;P2;SDS_P1;SDS_P2;PMS_P1;PMS_P2;Temp;Humidity;BMP_temperature;BMP_pressure;BME280_temperature;BME280_humidity;BME280_pressure;Samples;Min_cycle;Max_cycle;Signal;HPM_P1;HPM_P2
2021/08/25 00:00:54;;;;;;;2.63;0.82;;;23.90;41.50;;;;;;4129100;28;20513;-49
2021/08/25 00:02:57;;;;;;;0.75;0.65;;;24.20;41.40;;;;;;4127750;28;20061;-55
2021/08/25 00:05:00;;;;;;;2.90;0.50;;;24.40;41.20;;;;;;4132939;28;20045;-54
2021/08/25 00:07:02;;;;;;;2.05;0.32;;;24.60;40.80;;;;;;4131457;28;20429;-54
2021/08/25 00:09:06;;;;;;;0.30;0.30;;;24.80;40.40;;;;;;4132872;28;20105;-50
2021/08/25 00:11:07;;;;;;;;;;;25.00;40.30;;;;;;4137748;28;20148;-52
2021/08/25 00:13:09;;;;;;;0.50;0.30;;;25.30;40.20;;;;;;4136464;28;19910;-53
2021/08/25 00:15:11;;;;;;;0.65;0.50;;;25.50;39.40;;;;;;4133250;28;20124;-55
2021/08/25 00:17:14;;;;;;;0.52;0.45;;;25.70;39.20;;;;;;4133283;28;20043;-52
2021/08/25 00:19:16;;;;;;;0.38;0.30;;;25.90;38.90;;;;;;4132268;28;20057;-52
2021/08/25 00:21:20;;;;;;;0.55;0.40;;;26.10;38.50;;;;;;4130266;28;20114;-53
2021/08/25 00:23:22;;;;;;;0.40;0.40;;;26.30;38.20;;;;;;4128957;28;20045;-49
2021/08/25 00:25:27;;;;;;;0.70;0.50;;;26.50;38.10;;;;;;4136850;28;20053;-52
2021/08/25 00:27:29;;;;;;;0.40;0.30;;;26.60;38.00;;;;;;4135423;28;20045;-55
2021/08/25 00:29:31;;;;;;;0.52;0.40;;;26.50;37.60;;;;;;4134520;28;20112;-52
2021/08/25 00:31:33;;;;;;;0.70;0.30;;;26.40;37.00;;;;;;4137709;28;20075;-55
2021/08/25 00:33:35;;;;;;;0.25;0.25;;;26.20;37.10;;;;;;4132509;28;20030;-56
2021/08/25 00:35:37;;;;;;;0.30;0.30;;;26.10;37.10;;;;;;4135773;28;20329;-52
2021/08/25 00:37:39;;;;;;;0.30;0.30;;;26.00;37.00;;;;;;4133193;28;20034;-51
2021/08/25 00:39:42;;;;;;;0.93;0.40;;;25.80;37.20;;;;;;4134766;28;20040;-56
2021/08/25 00:41:44;;;;;;;0.75;0.45;;;25.80;37.10;;;;;;4137667;28;20029;-54
2021/08/25 00:43:46;;;;;;;0.50;0.50;;;25.70;36.80;;;;;;4133027;28;20048;-52
2021/08/25 00:45:48;;;;;;;0.47;0.30;;;25.80;36.80;;;;;;4131370;28;20018;-51
2021/08/25 00:47:51;;;;;;;0.40;0.40;;;25.80;36.70;;;;;;4136171;28;20160;-56
2021/08/25 00:49:53;;;;;;;1.27;0.70;;;25.90;36.40;;;;;;4134854;28;20029;-51
2021/08/25 00:51:55;;;;;;;0.28;0.28;;;25.90;36.40;;;;;;4136505;28;20056;-52
2021/08/25 00:53:58;;;;;;;0.30;0.30;;;25.90;36.50;;;;;;4132593;28;20502;-55
2021/08/25 00:55:59;;;;;;;;;;;26.00;36.80;;;;;;4138022;28;20033;-52
2021/08/25 00:58:02;;;;;;;0.40;0.40;;;26.00;36.80;;;;;;4133329;28;19924;-56
2021/08/25 01:00:08;;;;;;;0.57;0.47;;;26.10;36.60;;;;;;4135983;28;20078;-53
2021/08/25 01:02:41;;;;;;;0.70;0.57;;;26.20;36.50;;;;;;4132789;28;20544;-53
2021/08/25 01:04:55;;;;;;;1.75;0.43;;;26.30;36.40;;;;;;4137407;28;20033;-50
2021/08/25 01:06:59;;;;;;;0.25;0.25;;;26.30;36.30;;;;;;4134445;28;20527;-52
2021/08/25 01:09:03;;;;;;;;;;;26.40;36.10;;;;;;4136467;28;20446;-51
2021/08/25 01:11:14;;;;;;;0.45;0.30;;;26.50;36.00;;;;;;4137264;28;19913;-52
2021/08/25 01:13:16;;;;;;;0.75;0.47;;;26.60;36.00;;;;;;4128099;28;20026;-54
2021/08/25 01:15:18;;;;;;;0.68;0.35;;;26.60;35.70;;;;;;4134721;28;20135;-48
2021/08/25 01:17:25;;;;;;;0.63;0.43;;;26.70;35.80;;;;;;4130818;28;20034;-54
2021/08/25 01:19:29;;;;;;;0.30;0.30;;;26.80;35.80;;;;;;4131459;28;20108;-50
2021/08/25 01:21:31;;;;;;;0.65;0.40;;;26.90;35.80;;;;;;4126671;28;20053;-52
2021/08/25 01:23:38;;;;;;;0.63;0.45;;;27.00;35.80;;;;;;4130107;28;20117;-55
2021/08/25 01:25:41;;;;;;;0.40;0.40;;;27.10;35.80;;;;;;4128069;28;20121;-47
2021/08/25 01:27:49;;;;;;;;;;;27.10;35.50;;;;;;4134433;28;20168;-52
2021/08/25 01:29:52;;;;;;;13.65;1.27;;;27.20;36.00;;;;;;4131070;28;19917;-56
2021/08/25 01:31:55;;;;;;;14.05;2.28;;;27.20;36.80;;;;;;4131061;28;20026;-51
2021/08/25 01:34:06;;;;;;;;;;;26.90;37.50;;;;;;4136724;28;20061;-53
2021/08/25 01:36:14;;;;;;;6.38;1.00;;;26.70;38.60;;;;;;4135421;28;19978;-51
2021/08/25 01:38:28;;;;;;;6.97;1.05;;;26.40;39.10;;;;;;4134387;28;20061;-54
2021/08/25 01:40:30;;;;;;;;;;;26.20;39.40;;;;;;4133455;28;20431;-48
2021/08/25 01:42:32;;;;;;;2.00;0.73;;;26.00;39.50;;;;;;4135058;28;19921;-52
2021/08/25 01:44:35;;;;;;;5.00;0.82;;;25.80;40.00;;;;;;4131383;28;20105;-50
2021/08/25 01:46:39;;;;;;;4.10;0.70;;;25.70;40.10;;;;;;4132932;28;20034;-51
2021/08/25 01:48:41;;;;;;;4.50;0.80;;;25.50;40.40;;;;;;4133551;28;20454;-52
2021/08/25 01:50:44;;;;;;;1.45;0.45;;;25.40;40.60;;;;;;4134068;28;20034;-49
2021/08/25 01:52:46;;;;;;;1.75;0.80;;;25.30;41.40;;;;;;4137358;28;20014;-52
2021/08/25 01:54:52;;;;;;;5.00;0.70;;;25.10;40.70;;;;;;4134329;28;20038;-52
2021/08/25 01:56:54;;;;;;;1.33;0.38;;;25.00;40.80;;;;;;4133721;28;20036;-52
2021/08/25 01:59:02;;;;;;;1.30;0.40;;;24.90;40.90;;;;;;4134859;28;20053;-54
2021/08/25 02:01:06;;;;;;;2.60;0.52;;;24.80;41.20;;;;;;4131194;28;20061;-52
2021/08/25 02:03:07;;;;;;;;;;;24.70;41.20;;;;;;4129547;28;20168;-50
2021/08/25 02:05:10;;;;;;;1.08;0.40;;;24.60;41.60;;;;;;4133270;28;19960;-51
2021/08/25 02:07:12;;;;;;;1.88;0.40;;;24.50;41.70;;;;;;4132010;28;20025;-45
2021/08/25 02:09:14;;;;;;;2.17;0.40;;;24.40;41.30;;;;;;4133729;28;20513;-49
2021/08/25 02:11:16;;;;;;;1.15;0.30;;;24.30;41.50;;;;;;4139247;28;20529;-45
2021/08/25 02:13:18;;;;;;;2.17;0.45;;;24.20;41.60;;;;;;4138490;28;20059;-47
2021/08/25 02:15:20;;;;;;;0.65;0.40;;;24.10;41.60;;;;;;4144940;28;20037;-46
2021/08/25 02:17:22;;;;;;;3.92;0.60;;;24.00;41.80;;;;;;4147379;28;20044;-49
2021/08/25 02:19:24;;;;;;;1.98;0.65;;;24.00;41.90;;;;;;4144670;28;20129;-49
2021/08/25 02:21:26;;;;;;;1.05;0.68;;;23.90;41.70;;;;;;4132102;28;20033;-52
2021/08/25 02:23:28;;;;;;;0.95;0.52;;;23.80;41.60;;;;;;4137849;28;20026;-52
2021/08/25 02:25:30;;;;;;;2.25;0.50;;;23.80;41.90;;;;;;4124129;28;20031;-51
2021/08/25 02:27:33;;;;;;;0.60;0.40;;;23.70;42.70;;;;;;4142819;28;20123;-50
2021/08/25 02:29:35;;;;;;;1.15;0.30;;;23.60;42.10;;;;;;4142810;28;20025;-58
2021/08/25 02:31:37;;;;;;;0.98;0.30;;;23.60;42.20;;;;;;4127134;28;20066;-52
2021/08/25 02:33:40;;;;;;;4.40;0.60;;;23.50;42.30;;;;;;4136374;28;20454;-49
2021/08/25 02:35:42;;;;;;;2.35;0.52;;;23.40;42.30;;;;;;4135988;28;20029;-46
2021/08/25 02:37:44;;;;;;;1.15;0.35;;;23.30;42.30;;;;;;4140623;28;20045;-48
2021/08/25 02:39:46;;;;;;;0.38;0.32;;;23.20;42.30;;;;;;4140149;28;20109;-46
2021/08/25 02:41:48;;;;;;;1.38;0.40;;;23.20;42.40;;;;;;4139874;28;20073;-49
2021/08/25 02:43:50;;;;;;;0.38;0.30;;;23.10;42.60;;;;;;4139560;28;20026;-50
2021/08/25 02:45:52;;;;;;;0.50;0.50;;;23.00;42.60;;;;;;4142374;28;20387;-46
2021/08/25 02:47:54;;;;;;;1.00;0.30;;;23.00;42.70;;;;;;4135868;28;20022;-54
2021/08/25 02:49:57;;;;;;;1.35;0.40;;;22.90;42.90;;;;;;4141205;28;20108;-50
2021/08/25 02:51:59;;;;;;;0.47;0.40;;;22.90;43.20;;;;;;4131732;28;20499;-49
2021/08/25 02:54:01;;;;;;;0.30;0.30;;;22.80;43.20;;;;;;4139995;28;20041;-49
2021/08/25 02:56:03;;;;;;;0.60;0.38;;;22.80;43.30;;;;;;4136052;28;20037;-53
2021/08/25 02:58:05;;;;;;;0.40;0.40;;;22.70;43.40;;;;;;4142381;28;20045;-45
2021/08/25 03:00:11;;;;;;;0.80;0.47;;;22.70;43.40;;;;;;4138742;28;20547;-47
2021/08/25 03:02:13;;;;;;;0.75;0.50;;;22.60;43.60;;;;;;4138593;28;20465;-47
2021/08/25 03:04:15;;;;;;;0.80;0.60;;;22.60;43.80;;;;;;4137028;28;20029;-48
2021/08/25 03:06:17;;;;;;;0.80;0.40;;;22.50;43.90;;;;;;4135171;28;20513;-53
2021/08/25 03:08:19;;;;;;;0.95;0.60;;;22.50;43.90;;;;;;4131733;28;20091;-52
2021/08/25 03:10:22;;;;;;;2.10;0.40;;;22.40;44.00;;;;;;4137212;28;20040;-48
2021/08/25 03:12:24;;;;;;;0.98;0.50;;;22.30;44.30;;;;;;4135917;28;20045;-50
2021/08/25 03:14:26;;;;;;;1.70;0.60;;;22.30;44.50;;;;;;4136644;28;20612;-51
2021/08/25 03:16:28;;;;;;;0.40;0.30;;;22.30;44.50;;;;;;4133200;28;20022;-47
2021/08/25 03:18:30;;;;;;;0.55;0.38;;;22.20;44.60;;;;;;4131962;28;20022;-51
2021/08/25 03:20:33;;;;;;;2.72;0.70;;;22.20;44.80;;;;;;4135538;28;20034;-49
2021/08/25 03:22:36;;;;;;;1.17;0.50;;;22.20;44.90;;;;;;4132627;28;20065;-52
2021/08/25 03:24:38;;;;;;;0.85;0.60;;;22.10;44.90;;;;;;4140385;28;20117;-46
2021/08/25 03:26:40;;;;;;;0.57;0.57;;;22.10;45.30;;;;;;4118766;28;20508;-50
2021/08/25 03:28:42;;;;;;;0.98;0.50;;;22.10;45.30;;;;;;4138233;28;20344;-49
2021/08/25 03:30:44;;;;;;;0.90;0.52;;;22.10;45.50;;;;;;4136358;28;20038;-50
2021/08/25 03:32:46;;;;;;;1.50;0.60;;;22.00;45.40;;;;;;4137421;28;20064;-50
2021/08/25 03:34:48;;;;;;;0.70;0.45;;;22.00;45.40;;;;;;4114752;28;20042;-46
2021/08/25 03:36:51;;;;;;;1.10;0.40;;;21.90;45.20;;;;;;4129936;28;20119;-54
2021/08/25 03:38:54;;;;;;;1.17;0.40;;;21.90;45.40;;;;;;4138063;28;20022;-53
2021/08/25 03:40:56;;;;;;;0.98;0.50;;;21.90;45.60;;;;;;4134116;28;20037;-49
2021/08/25 03:42:58;;;;;;;0.35;0.35;;;21.90;45.50;;;;;;4134353;28;20076;-53
2021/08/25 03:45:00;;;;;;;0.57;0.40;;;21.90;45.30;;;;;;4119929;28;20057;-51
2021/08/25 03:47:03;;;;;;;1.05;0.50;;;21.90;45.40;;;;;;4137124;28;20026;-49
2021/08/25 03:49:05;;;;;;;0.40;0.40;;;21.90;45.30;;;;;;4131523;28;20462;-51
2021/08/25 03:51:07;;;;;;;0.30;0.30;;;21.80;45.30;;;;;;4134206;28;20040;-51
2021/08/25 03:53:09;;;;;;;1.60;0.63;;;21.80;45.50;;;;;;4127653;28;20224;-47
2021/08/25 03:55:11;;;;;;;1.00;0.65;;;;;;;;;;4131264;28;20034;-48
2021/08/25 03:57:13;;;;;;;1.30;0.57;;;;;;;;;;4133609;28;20478;-47
2021/08/25 03:59:15;;;;;;;1.23;0.50;;;;;;;;;;4131785;28;20436;-49
2021/08/25 04:01:17;;;;;;;0.88;0.57;;;;;;;;;;4133628;28;20723;-46
2021/08/25 04:03:19;;;;;;;2.53;0.82;;;;;;;;;;4125127;28;20120;-47
2021/08/25 04:05:21;;;;;;;0.40;0.40;;;;;;;;;;4133429;28;20029;-55
2021/08/25 04:07:23;;;;;;;7.28;0.75;;;;;;;;;;4130547;28;20512;-52
2021/08/25 04:09:25;;;;;;;2.53;0.70;;;;;;;;;;4134279;28;20113;-55
2021/08/25 04:11:27;;;;;;;1.80;0.75;;;;;;;;;;4135756;28;20195;-53
2021/08/25 04:13:29;;;;;;;2.13;0.88;;;;;;;;;;4135917;28;20591;-53
2021/08/25 04:15:31;;;;;;;1.77;0.70;;;;;;;;;;4141426;28;20483;-55
2021/08/25 04:17:33;;;;;;;8.52;0.60;;;;;;;;;;4136742;28;20023;-56
2021/08/25 04:19:35;;;;;;;0.40;0.40;;;;;;;;;;4138998;28;20554;-52
2021/08/25 04:21:37;;;;;;;0.50;0.50;;;;;;;;;;4137417;28;20546;-56
2021/08/25 04:23:40;;;;;;;1.02;0.45;;;;;;;;;;4142654;28;20037;-57
2021/08/25 04:25:42;;;;;;;0.88;0.60;;;;;;;;;;4142233;28;20029;-57
2021/08/25 04:27:44;;;;;;;2.00;0.40;;;;;;;;;;4140552;28;20025;-56
2021/08/25 04:29:46;;;;;;;1.35;0.50;;;;;;;;;;4142939;28;20030;-55
2021/08/25 04:31:48;;;;;;;0.38;0.38;;;;;;;;;;4141040;28;20377;-58
2021/08/25 04:33:50;;;;;;;1.00;0.40;;;;;;;;;;4143660;28;20190;-57
2021/08/25 04:35:52;;;;;;;0.52;0.40;;;;;;;;;;4137032;28;20045;-48
2021/08/25 04:37:54;;;;;;;2.08;0.60;;;21.80;45.30;;;;;;4131719;28;20054;-47
2021/08/25 04:39:56;;;;;;;2.95;0.57;;;21.00;46.80;;;;;;4131347;28;20018;-49
2021/08/25 04:41:58;;;;;;;1.17;0.60;;;21.00;46.60;;;;;;4132332;28;20033;-45
2021/08/25 04:44:00;;;;;;;0.52;0.40;;;20.90;47.00;;;;;;4133261;28;20164;-50
2021/08/25 04:46:02;;;;;;;1.60;0.63;;;;;;;;;;4137426;28;20030;-51
2021/08/25 04:48:04;;;;;;;1.38;0.50;;;21.10;47.30;;;;;;4137973;28;20338;-52
2021/08/25 04:50:07;;;;;;;0.35;0.35;;;21.70;46.90;;;;;;4124315;28;20049;-52
2021/08/25 04:52:09;;;;;;;0.55;0.55;;;;;;;;;;4142016;28;20095;-53
2021/08/25 04:54:11;;;;;;;0.93;0.50;;;22.00;47.10;;;;;;4144571;28;20542;-52
2021/08/25 04:56:13;;;;;;;0.40;0.40;;;22.60;45.70;;;;;;4140996;28;20025;-50
2021/08/25 04:58:15;;;;;;;2.03;0.63;;;22.90;45.50;;;;;;4133869;28;20474;-49
2021/08/25 05:00:17;;;;;;;1.35;0.55;;;23.20;45.30;;;;;;4137785;28;20487;-51
2021/08/25 05:02:20;;;;;;;0.60;0.60;;;23.40;45.00;;;;;;4139660;28;20509;-48
2021/08/25 05:04:22;;;;;;;1.65;0.75;;;23.60;44.80;;;;;;4141964;28;20132;-47
2021/08/25 05:06:24;;;;;;;0.95;0.52;;;23.80;44.50;;;;;;4143276;28;20056;-51
2021/08/25 05:08:27;;;;;;;1.67;0.73;;;24.00;45.00;;;;;;4140420;28;20029;-52
2021/08/25 05:10:29;;;;;;;2.38;0.68;;;24.20;44.10;;;;;;4143165;28;20029;-49
2021/08/25 05:12:31;;;;;;;1.30;0.75;;;24.40;44.10;;;;;;4144035;28;20116;-48
2021/08/25 05:14:35;;;;;;;0.88;0.50;;;24.60;43.80;;;;;;4141486;28;20037;-49
2021/08/25 05:16:37;;;;;;;1.33;0.60;;;24.80;43.60;;;;;;4136665;28;20048;-47
2021/08/25 05:18:40;;;;;;;1.67;0.63;;;25.00;43.50;;;;;;4137638;28;20045;-53
2021/08/25 05:20:41;;;;;;;;;;;25.10;43.30;;;;;;4134353;28;20038;-54
2021/08/25 05:22:44;;;;;;;2.10;0.80;;;25.30;43.20;;;;;;4143124;28;19921;-50
2021/08/25 05:24:46;;;;;;;1.92;0.73;;;25.50;43.10;;;;;;4142307;28;20018;-55
2021/08/25 05:26:48;;;;;;;1.85;0.63;;;25.60;42.90;;;;;;4149464;28;20029;-51
2021/08/25 05:28:50;;;;;;;1.33;0.60;;;25.80;42.80;;;;;;4140403;28;20345;-49
2021/08/25 05:30:53;;;;;;;4.45;0.75;;;26.00;42.70;;;;;;4141246;28;20852;-53
2021/08/25 05:32:55;;;;;;;1.80;0.68;;;26.10;42.30;;;;;;4141097;28;20057;-55
2021/08/25 05:34:57;;;;;;;0.90;0.43;;;26.10;42.10;;;;;;4144330;28;20049;-52
2021/08/25 05:36:59;;;;;;;1.17;0.70;;;26.00;42.30;;;;;;4139831;28;20045;-50
2021/08/25 05:39:01;;;;;;;1.38;0.52;;;25.80;42.60;;;;;;4140797;28;20129;-52
2021/08/25 05:41:03;;;;;;;1.40;0.50;;;25.60;42.80;;;;;;4119028;28;20590;-51
2021/08/25 05:43:05;;;;;;;1.00;0.38;;;25.40;43.20;;;;;;4138900;28;20042;-50
2021/08/25 05:45:09;;;;;;;2.85;0.63;;;25.20;42.90;;;;;;4125703;28;20681;-50
2021/08/25 05:47:11;;;;;;;1.25;0.55;;;25.10;43.10;;;;;;4132078;28;20358;-47
2021/08/25 05:49:13;;;;;;;2.05;0.60;;;24.90;43.20;;;;;;4142954;28;20048;-55
2021/08/25 05:51:15;;;;;;;2.70;0.47;;;24.80;43.30;;;;;;4140680;28;20163;-55
2021/08/25 05:53:17;;;;;;;0.88;0.47;;;24.70;43.50;;;;;;4142695;28;20137;-53
2021/08/25 05:55:20;;;;;;;0.73;0.57;;;24.60;43.60;;;;;;4137834;28;20026;-52
2021/08/25 05:57:22;;;;;;;0.45;0.38;;;24.50;43.70;;;;;;4130827;28;20087;-54
2021/08/25 05:59:24;;;;;;;2.00;0.75;;;24.40;43.90;;;;;;4134803;28;20112;-56
2021/08/25 06:01:26;;;;;;;0.43;0.40;;;24.30;43.70;;;;;;4130298;28;20018;-54
2021/08/25 06:03:28;;;;;;;0.50;0.40;;;24.20;44.00;;;;;;4131846;28;20344;-48
2021/08/25 06:05:30;;;;;;;0.90;0.50;;;24.20;44.00;;;;;;4127746;28;20033;-55
2021/08/25 06:07:33;;;;;;;1.13;0.40;;;24.00;43.90;;;;;;4129278;28;20034;-48
2021/08/25 06:09:35;;;;;;;0.30;0.30;;;24.00;43.90;;;;;;4125895;28;20151;-50
2021/08/25 06:11:39;;;;;;;0.77;0.50;;;24.00;44.10;;;;;;4142569;28;20086;-47
2021/08/25 06:13:41;;;;;;;0.30;0.30;;;23.90;44.10;;;;;;4137700;28;20080;-46
2021/08/25 06:15:43;;;;;;;0.35;0.32;;;23.90;44.20;;;;;;4135889;28;20034;-49
2021/08/25 06:17:45;;;;;;;2.00;0.50;;;23.80;44.30;;;;;;4131462;28;20499;-51
2021/08/25 06:19:47;;;;;;;1.33;0.52;;;23.80;44.30;;;;;;4135325;28;20038;-50
2021/08/25 06:21:50;;;;;;;0.32;0.32;;;23.80;44.20;;;;;;4132904;28;20029;-50
2021/08/25 06:23:52;;;;;;;0.65;0.40;;;23.80;44.20;;;;;;4138017;28;20369;-48
2021/08/25 06:25:54;;;;;;;1.25;0.32;;;23.70;44.10;;;;;;4135517;28;20026;-49
2021/08/25 06:27:56;;;;;;;1.48;0.43;;;23.70;44.30;;;;;;4134500;28;20041;-50
2021/08/25 06:29:58;;;;;;;2.15;0.50;;;23.60;44.40;;;;;;4135724;28;20263;-47
2021/08/25 06:32:00;;;;;;;0.30;0.30;;;23.60;44.30;;;;;;4126959;28;20046;-48
2021/08/25 06:34:02;;;;;;;0.40;0.40;;;23.50;44.40;;;;;;4137210;28;20523;-45
2021/08/25 06:36:04;;;;;;;0.35;0.35;;;23.50;45.10;;;;;;4135760;28;20037;-49
2021/08/25 06:38:07;;;;;;;1.00;0.57;;;23.40;44.40;;;;;;4131427;28;20041;-53
2021/08/25 06:40:09;;;;;;;0.40;0.30;;;23.30;44.30;;;;;;4130621;28;20018;-51
2021/08/25 06:42:11;;;;;;;1.02;0.50;;;23.30;44.40;;;;;;4135129;28;20041;-53
2021/08/25 06:44:14;;;;;;;0.50;0.43;;;23.20;44.60;;;;;;4137251;28;20395;-49
2021/08/25 06:46:16;;;;;;;0.45;0.40;;;23.20;44.60;;;;;;4129056;28;20046;-48
2021/08/25 06:48:19;;;;;;;0.40;0.40;;;23.10;44.70;;;;;;4137887;28;20105;-52
2021/08/25 06:50:21;;;;;;;0.65;0.38;;;23.10;44.90;;;;;;4135798;28;20038;-51
2021/08/25 06:52:23;;;;;;;0.90;0.40;;;23.00;44.80;;;;;;4126915;28;20442;-53
2021/08/25 06:54:25;;;;;;;0.82;0.50;;;23.00;44.80;;;;;;4132976;28;20026;-54
2021/08/25 06:56:27;;;;;;;1.85;0.55;;;22.90;44.80;;;;;;4135053;28;20045;-52
2021/08/25 06:58:29;;;;;;;0.70;0.40;;;22.90;45.00;;;;;;4133963;28;20056;-50
2021/08/25 07:00:31;;;;;;;1.17;0.65;;;22.90;45.10;;;;;;4137196;28;20053;-56
2021/08/25 07:02:33;;;;;;;0.70;0.50;;;22.80;45.10;;;;;;4121230;28;20030;-53
2021/08/25 07:04:35;;;;;;;1.35;0.50;;;22.70;45.10;;;;;;4135070;28;20030;-54
2021/08/25 07:06:38;;;;;;;1.10;0.43;;;22.60;45.10;;;;;;4130822;28;20034;-51
2021/08/25 07:08:40;;;;;;;1.40;0.50;;;22.60;45.10;;;;;;4137867;28;20037;-52
2021/08/25 07:10:42;;;;;;;0.25;0.25;;;22.50;45.10;;;;;;4133850;28;20430;-51
2021/08/25 07:12:44;;;;;;;2.15;0.60;;;22.50;45.10;;;;;;4141545;28;20317;-52
2021/08/25 07:14:51;;;;;;;2.33;0.57;;;22.40;44.80;;;;;;4137731;28;20045;-50
2021/08/25 07:16:53;;;;;;;1.00;0.50;;;22.40;45.00;;;;;;4134588;28;20139;-53
2021/08/25 07:18:55;;;;;;;1.38;0.30;;;22.30;45.10;;;;;;4138513;28;20119;-52
2021/08/25 07:20:57;;;;;;;0.30;0.30;;;22.20;45.00;;;;;;4142262;28;20049;-54
2021/08/25 07:22:59;;;;;;;1.30;0.70;;;22.20;45.10;;;;;;4144997;28;20045;-56
2021/08/25 07:25:01;;;;;;;0.68;0.40;;;22.10;45.10;;;;;;4131159;28;20381;-57
2021/08/25 07:27:04;;;;;;;1.50;0.40;;;22.10;45.10;;;;;;4135865;28;20045;-55
2021/08/25 07:29:06;;;;;;;0.68;0.40;;;22.00;45.10;;;;;;4130171;28;20087;-53
2021/08/25 07:31:08;;;;;;;1.75;0.43;;;22.00;45.10;;;;;;4139052;28;20318;-48
2021/08/25 07:33:15;;;;;;;2.20;0.55;;;21.90;45.00;;;;;;4138009;28;20089;-51
2021/08/25 07:35:17;;;;;;;1.45;0.40;;;21.80;45.20;;;;;;4136030;28;20387;-54
2021/08/25 07:37:19;;;;;;;0.57;0.57;;;;;;;;;;4130947;28;20429;-52
2021/08/25 07:39:22;;;;;;;0.40;0.40;;;;;;;;;;4131160;28;20033;-55
2021/08/25 07:41:24;;;;;;;0.30;0.30;;;21.80;45.20;;;;;;4136348;28;20084;-52
2021/08/25 07:43:26;;;;;;;1.00;0.50;;;21.70;45.50;;;;;;4140503;28;20092;-52
2021/08/25 07:45:28;;;;;;;0.80;0.65;;;21.60;45.60;;;;;;4138150;28;20186;-50
2021/08/25 07:47:30;;;;;;;1.20;0.73;;;21.50;45.60;;;;;;4133723;28;20030;-53
2021/08/25 07:49:32;;;;;;;0.47;0.40;;;21.50;45.70;;;;;;4139628;28;20117;-55
2021/08/25 07:51:34;;;;;;;1.15;0.50;;;21.40;45.70;;;;;;4138251;28;20034;-54
2021/08/25 07:53:40;;;;;;;1.42;0.50;;;21.40;45.80;;;;;;4135789;28;20084;-52
2021/08/25 07:55:42;;;;;;;1.88;0.40;;;;;;;;;;4135575;28;20428;-52
2021/08/25 07:57:44;;;;;;;0.50;0.45;;;;;;;;;;4138522;28;20088;-53
2021/08/25 07:59:46;;;;;;;1.45;0.60;;;;;;;;;;4132099;28;20034;-56
2021/08/25 08:01:48;;;;;;;0.43;0.40;;;;;;;;;;4136162;28;20031;-51
2021/08/25 08:03:50;;;;;;;0.32;0.32;;;;;;;;;;4134178;28;20034;-53
2021/08/25 08:05:52;;;;;;;0.40;0.40;;;;;;;;;;4133642;28;20044;-54
2021/08/25 08:07:56;;;;;;;0.52;0.52;;;;;;;;;;4136450;28;20147;-53
2021/08/25 08:09:58;;;;;;;0.45;0.45;;;;;;;;;;4138523;28;20045;-54
2021/08/25 08:11:59;;;;;;;0.40;0.40;;;;;;;;;;4143470;28;20054;-55
2021/08/25 08:14:02;;;;;;;0.50;0.50;;;;;;;;;;4139399;28;20037;-55
2021/08/25 08:16:04;;;;;;;1.20;0.47;;;;;;;;;;4134640;28;20061;-54
2021/08/25 08:18:56;;;;;;;1.75;0.50;;;;;;;;;;4134316;28;20060;-57
2021/08/25 08:20:31;;;;;;;0.38;0.38;;;;;;;;;;4120426;28;20065;-57
2021/08/25 08:22:33;;;;;;;2.58;0.60;;;;;;;;;;4134517;28;20030;-58
2021/08/25 08:24:35;;;;;;;2.05;0.57;;;;;;;;;;4135503;28;20037;-57
2021/08/25 08:26:37;;;;;;;5.05;0.45;;;;;;;;;;4137211;28;20026;-54
2021/08/25 08:28:39;;;;;;;1.95;0.68;;;;;;;;;;4141110;28;20653;-55
2021/08/25 08:30:41;;;;;;;0.85;0.50;;;;;;;;;;4143360;28;20049;-56
2021/08/25 08:32:43;;;;;;;0.45;0.40;;;;;;;;;;4146455;28;20035;-55
2021/08/25 08:34:45;;;;;;;0.60;0.40;;;;;;;;;;4138865;28;20150;-58
2021/08/25 08:36:47;;;;;;;1.05;0.43;;;;;;;;;;4140147;28;20414;-59
2021/08/25 08:38:49;;;;;;;0.40;0.40;;;;;;;;;;4138299;28;20034;-56
2021/08/25 08:40:51;;;;;;;1.13;0.47;;;;;;;;;;4140885;28;20072;-56
2021/08/25 08:42:53;;;;;;;1.02;0.60;;;;;;;;;;4143081;28;20103;-57
2021/08/25 08:44:56;;;;;;;0.68;0.50;;;;;;;;;;4138744;28;20095;-59
2021/08/25 08:46:59;;;;;;;3.03;0.65;;;;;;;;;;4129377;28;20029;-60
2021/08/25 08:49:01;;;;;;;1.52;0.50;;;;;;;;;;4114925;28;20650;-60
2021/08/25 08:51:03;;;;;;;0.30;0.30;;;;;;;;;;4125866;28;20077;-61
2021/08/25 08:53:06;;;;;;;0.40;0.40;;;;;;;;;;4128520;28;20565;-59
2021/08/25 08:55:09;;;;;;;1.55;0.70;;;;;;;;;;4134971;28;20873;-57
2021/08/25 08:57:11;;;;;;;1.08;0.55;;;21.30;45.80;;;;;;4130358;28;20481;-55
2021/08/25 08:59:13;;;;;;;0.93;0.60;;;20.50;48.90;;;;;;4131987;28;20033;-61
2021/08/25 09:01:15;;;;;;;0.40;0.40;;;20.50;49.00;;;;;;4128990;28;20030;-58
2021/08/25 09:03:23;;;;;;;0.82;0.70;;;20.50;48.90;;;;;;4132072;28;20586;-55
2021/08/25 09:05:26;;;;;;;0.52;0.47;;;20.40;49.10;;;;;;4129021;28;20091;-58
2021/08/25 09:07:28;;;;;;;;;;;20.40;48.70;;;;;;4124430;28;20025;-58
2021/08/25 09:09:58;;;;;;;1.85;0.60;;;20.40;49.00;;;;;;4129451;28;19914;-60
2021/08/25 09:12:00;;;;;;;0.52;0.50;;;20.40;49.00;;;;;;4119260;28;20062;-60
2021/08/25 09:14:11;;;;;;;0.52;0.40;;;20.40;49.10;;;;;;4134746;28;20034;-57
2021/08/25 09:16:28;;;;;;;1.42;0.60;;;20.30;49.10;;;;;;4109800;28;20038;-57
2021/08/25 09:18:31;;;;;;;0.50;0.50;;;20.30;49.40;;;;;;4130094;28;20286;-55
2021/08/25 09:20:40;;;;;;;0.43;0.43;;;20.30;49.30;;;;;;4105589;28;20114;-54
2021/08/25 09:22:42;;;;;;;0.88;0.52;;;20.30;49.10;;;;;;4131754;28;20042;-58
2021/08/25 09:24:44;;;;;;;0.73;0.50;;;20.30;49.30;;;;;;4134262;28;20129;-57
2021/08/25 09:27:16;;;;;;;0.43;0.30;;;20.30;49.10;;;;;;4132282;28;20034;-57
2021/08/25 09:29:20;;;;;;;0.40;0.40;;;20.20;49.60;;;;;;4132547;28;20527;-58
2021/08/25 09:31:22;;;;;;;0.28;0.28;;;20.20;49.60;;;;;;4130693;28;20169;-55
2021/08/25 09:33:30;;;;;;;0.40;0.40;;;20.20;49.60;;;;;;4127506;28;20052;-57
2021/08/25 09:35:42;;;;;;;0.40;0.40;;;20.20;49.70;;;;;;4131478;28;20056;-58
2021/08/25 09:37:55;;;;;;;2.20;0.43;;;20.20;49.30;;;;;;4132558;28;20029;-59
2021/08/25 09:39:59;;;;;;;3.75;0.70;;;20.10;49.60;;;;;;4130087;28;20060;-59
2021/08/25 09:42:04;;;;;;;0.90;0.75;;;20.10;49.50;;;;;;4127574;28;20048;-57
2021/08/25 09:44:16;;;;;;;0.43;0.43;;;20.10;49.90;;;;;;4130033;28;20370;-57
2021/08/25 09:46:25;;;;;;;0.40;0.40;;;20.10;50.00;;;;;;4132013;28;20539;-60
2021/08/25 09:48:44;;;;;;;1.20;0.43;;;20.10;49.90;;;;;;4137321;28;20108;-56
2021/08/25 09:50:58;;;;;;;1.23;0.50;;;20.10;50.20;;;;;;4137359;28;20030;-59
2021/08/25 09:53:00;;;;;;;0.73;0.50;;;20.00;50.00;;;;;;4141580;28;20495;-58
2021/08/25 09:55:02;;;;;;;1.43;0.50;;;20.00;50.20;;;;;;4139237;28;20030;-59
2021/08/25 09:57:04;;;;;;;0.73;0.50;;;20.00;50.20;;;;;;4136844;28;20552;-58
2021/08/25 09:59:08;;;;;;;0.50;0.50;;;20.00;50.30;;;;;;4139118;28;20549;-56
2021/08/25 10:01:11;;;;;;;1.38;0.50;;;19.90;50.30;;;;;;4136856;28;21324;-57
2021/08/25 10:03:14;;;;;;;0.60;0.60;;;19.90;50.30;;;;;;4145338;28;20550;-56
2021/08/25 10:05:22;;;;;;;0.40;0.40;;;19.90;50.20;;;;;;4133169;28;20488;-56
2021/08/25 10:07:25;;;;;;;0.82;0.45;;;19.90;50.20;;;;;;4139419;28;20038;-57
2021/08/25 10:09:27;;;;;;;0.77;0.68;;;19.90;50.20;;;;;;4140613;28;20175;-50
2021/08/25 10:11:31;;;;;;;0.60;0.60;;;19.90;50.70;;;;;;4144773;28;20137;-54
2021/08/25 10:13:33;;;;;;;0.60;0.40;;;19.90;50.20;;;;;;4146884;28;20401;-56
2021/08/25 10:15:45;;;;;;;0.50;0.50;;;19.80;50.30;;;;;;4129021;28;20796;-55
2021/08/25 10:17:47;;;;;;;1.67;0.40;;;19.80;50.30;;;;;;4127792;28;20076;-48
2021/08/25 10:19:55;;;;;;;0.47;0.40;;;19.80;50.70;;;;;;4139120;28;20030;-51
2021/08/25 10:22:02;;;;;;;0.88;0.60;;;19.80;50.70;;;;;;4142995;28;20347;-50
2021/08/25 10:24:05;;;;;;;1.48;0.40;;;19.80;50.70;;;;;;4129794;28;20042;-51
2021/08/25 10:26:08;;;;;;;0.43;0.43;;;19.80;50.70;;;;;;4139172;28;20026;-53
2021/08/25 10:28:10;;;;;;;0.40;0.40;;;19.80;50.80;;;;;;4132936;28;20045;-55
2021/08/25 10:30:17;;;;;;;0.47;0.47;;;19.80;50.70;;;;;;4137621;28;20042;-48
2021/08/25 10:32:19;;;;;;;0.30;0.30;;;19.80;50.70;;;;;;4142389;28;20030;-47
2021/08/25 10:34:43;;;;;;;0.82;0.47;;;19.80;50.80;;;;;;4141862;28;20041;-45
2021/08/25 10:36:45;;;;;;;0.85;0.30;;;19.80;50.80;;;;;;4136816;28;20113;-49
2021/08/25 10:38:47;;;;;;;0.32;0.32;;;19.80;50.90;;;;;;4134406;28;20029;-48
2021/08/25 10:40:51;;;;;;;0.40;0.40;;;19.80;51.00;;;;;;4139290;28;20172;-50
2021/08/25 10:43:01;;;;;;;0.25;0.25;;;19.70;50.90;;;;;;4130741;28;20350;-51
2021/08/25 10:45:04;;;;;;;0.50;0.40;;;19.70;50.80;;;;;;4132581;28;20022;-48
2021/08/25 10:47:11;;;;;;;0.38;0.38;;;19.70;50.90;;;;;;4130845;28;20073;-50
2021/08/25 10:49:37;;;;;;;0.38;0.38;;;19.70;51.00;;;;;;4130491;28;20034;-47
2021/08/25 10:51:40;;;;;;;1.35;0.50;;;19.70;50.80;;;;;;4137450;28;20153;-47
2021/08/25 10:53:42;;;;;;;0.60;0.60;;;19.70;50.90;;;;;;4133379;28;20615;-50
2021/08/25 10:55:44;;;;;;;0.68;0.50;;;19.70;51.00;;;;;;4131162;28;20061;-51
2021/08/25 10:57:47;;;;;;;0.30;0.30;;;19.70;51.10;;;;;;4126274;28;20033;-54
2021/08/25 10:59:50;;;;;;;0.45;0.30;;;19.70;51.10;;;;;;4133366;28;20030;-52